createdAt,value
2019-03-19T00:00:24.081Z,89.35
2019-03-19T00:03:12.687Z,88.58
2019-03-19T00:06:01.587Z,90.75
2019-03-19T00:08:49.613Z,91.75
2019-03-19T00:11:38.120Z,90.40
2019-03-19T00:14:26.904Z,89.27
2019-03-19T00:17:15.028Z,90.23
2019-03-19T00:20:03.511Z,90.24
2019-03-19T00:22:52.023Z,90.46
2019-03-19T00:25:43.196Z,90.93
2019-03-19T00:28:31.052Z,94.55
2019-03-19T00:31:19.611Z,96.46
2019-03-19T00:34:07.756Z,96.53
2019-03-19T00:36:55.941Z,95.28
2019-03-19T00:39:44.565Z,95.12
2019-03-19T00:42:32.794Z,95.08
2019-03-19T00:45:20.925Z,94.87
2019-03-19T00:48:09.418Z,94.34
2019-03-19T00:50:57.741Z,94.00
2019-03-19T00:53:45.651Z,93.64
2019-03-19T00:56:33.925Z,91.48
2019-03-19T00:59:22.146Z,90.55
2019-03-19T01:02:10.659Z,90.82
2019-03-19T01:04:59.563Z,93.62
2019-03-19T01:07:47.611Z,94.31
2019-03-19T01:10:35.991Z,95.37
2019-03-19T01:13:24.634Z,96.51
2019-03-19T01:16:12.794Z,97.16
2019-03-19T01:19:00.998Z,95.94
2019-03-19T01:21:49.191Z,97.47
2019-03-19T01:24:37.304Z,97.07
2019-03-19T01:27:26.743Z,96.62
2019-03-19T01:30:15.499Z,97.15
2019-03-19T01:33:03.823Z,97.27
2019-03-19T01:35:51.868Z,97.48
2019-03-19T01:38:40.658Z,97.94
2019-03-19T01:41:28.463Z,97.06
2019-03-19T01:44:16.935Z,96.52
2019-03-19T01:47:04.685Z,95.72
2019-03-19T01:49:53.139Z,96.12
2019-03-19T01:52:41.850Z,96.93
2019-03-19T01:55:30.023Z,97.12
2019-03-19T01:58:18.036Z,96.29
2019-03-19T02:01:06.472Z,95.42
2019-03-19T02:03:55.018Z,95.41
2019-03-19T02:06:43.490Z,94.90
2019-03-19T02:09:32.203Z,94.51
2019-03-19T02:12:19.986Z,94.65
2019-03-19T02:15:08.307Z,95.63
2019-03-19T02:17:57.232Z,96.72
2019-03-19T02:20:46.234Z,95.79
2019-03-19T02:23:34.544Z,96.62
2019-03-19T02:26:22.556Z,97.97
2019-03-19T02:29:11.092Z,99.47
2019-03-19T02:31:59.062Z,100.00
2019-03-19T02:34:47.474Z,100.00
2019-03-19T02:37:35.640Z,100.00
2019-03-19T02:40:24.613Z,100.00
2019-03-19T02:43:12.452Z,100.00
2019-03-19T02:46:00.734Z,100.00
2019-03-19T02:48:48.701Z,100.00
2019-03-19T02:51:36.793Z,99.96
2019-03-19T02:54:24.593Z,98.43
2019-03-19T02:57:13.180Z,98.78
2019-03-19T03:00:01.149Z,96.52
2019-03-19T03:02:49.312Z,95.34
2019-03-19T03:05:38.248Z,96.50
2019-03-19T03:08:26.001Z,94.08
2019-03-19T03:11:14.770Z,93.76
2019-03-19T03:14:02.264Z,93.91
2019-03-19T03:16:50.804Z,94.10
2019-03-19T03:19:39.317Z,94.58
2019-03-19T03:22:27.880Z,95.10
2019-03-19T03:25:16.030Z,95.83
2019-03-19T03:28:04.536Z,96.27
2019-03-19T03:30:52.323Z,94.83
2019-03-19T03:33:41.267Z,94.63
2019-03-19T03:36:29.652Z,93.53
2019-03-19T03:39:17.763Z,94.12
2019-03-19T03:42:06.228Z,96.29
2019-03-19T03:44:54.414Z,98.18
2019-03-19T03:47:42.586Z,97.81
2019-03-19T03:50:32.861Z,96.51
2019-03-19T03:53:21.712Z,98.62
2019-03-19T03:56:09.543Z,100.00
2019-03-19T03:59:01.069Z,100.00
2019-03-19T04:01:47.510Z,100.00
2019-03-19T04:04:36.477Z,100.00
2019-03-19T04:07:24.947Z,99.38
2019-03-19T04:10:13.187Z,99.11
2019-03-19T04:13:01.742Z,100.00
2019-03-19T04:15:50.287Z,100.00
2019-03-19T04:18:38.596Z,100.00
2019-03-19T04:21:27.125Z,100.00
2019-03-19T04:24:15.554Z,99.08
2019-03-19T04:27:15.473Z,98.38
2019-03-19T04:29:54.929Z,96.82
2019-03-19T04:32:42.728Z,94.84
2019-03-19T04:35:31.209Z,94.41
2019-03-19T04:38:19.799Z,92.95
2019-03-19T04:41:08.309Z,92.48
2019-03-19T04:43:56.938Z,92.58
2019-03-19T04:46:45.035Z,91.95
2019-03-19T04:49:33.195Z,94.76
2019-03-19T04:52:21.259Z,97.94
2019-03-19T04:55:09.937Z,100.00
2019-03-19T04:57:57.907Z,100.00
2019-03-19T05:00:46.395Z,100.00
2019-03-19T05:03:35.824Z,100.00
2019-03-19T05:06:23.951Z,100.00
2019-03-19T05:09:12.589Z,100.00
2019-03-19T05:12:00.478Z,100.00
2019-03-19T05:14:48.968Z,100.00
2019-03-19T05:17:37.559Z,100.00
2019-03-19T05:20:25.264Z,100.00
2019-03-19T05:23:13.787Z,99.70
2019-03-19T05:26:02.215Z,98.79
2019-03-19T05:28:50.695Z,98.13
2019-03-19T05:31:38.863Z,96.91
2019-03-19T05:34:27.193Z,95.03
2019-03-19T05:37:15.782Z,94.09
2019-03-19T05:40:04.323Z,93.64
2019-03-19T05:42:52.176Z,90.75
2019-03-19T05:45:40.686Z,90.90
2019-03-19T05:48:28.515Z,91.03
2019-03-19T05:51:16.954Z,90.53
2019-03-19T05:54:05.174Z,90.07
2019-03-19T05:56:56.828Z,89.75
2019-03-19T05:59:45.092Z,88.82
2019-03-19T06:02:33.700Z,89.00
2019-03-19T06:05:22.122Z,88.43
2019-03-19T06:08:10.528Z,87.58
2019-03-19T06:10:59.036Z,89.31
2019-03-19T06:13:48.031Z,86.78
2019-03-19T06:16:36.569Z,85.61
2019-03-19T06:19:25.032Z,83.92
2019-03-19T06:22:13.445Z,83.53
2019-03-19T06:25:01.631Z,84.65
2019-03-19T06:27:59.966Z,84.61
2019-03-19T06:30:40.034Z,85.61
2019-03-19T06:33:28.164Z,83.98
2019-03-19T06:36:16.601Z,80.31
2019-03-19T06:39:06.883Z,78.68
2019-03-19T06:41:55.181Z,76.94
2019-03-19T06:44:44.181Z,77.49
2019-03-19T06:47:32.433Z,78.12
2019-03-19T06:50:20.933Z,76.37
2019-03-19T06:53:08.986Z,75.45
2019-03-19T06:55:56.814Z,75.37
2019-03-19T06:58:45.607Z,75.59
2019-03-19T07:01:33.834Z,75.64
2019-03-19T07:04:22.242Z,75.31
2019-03-19T07:07:10.844Z,75.08
2019-03-19T07:09:58.660Z,75.23
2019-03-19T07:12:46.759Z,74.73
2019-03-19T07:15:35.259Z,73.68
2019-03-19T07:18:23.775Z,73.60
2019-03-19T07:21:11.931Z,74.37
2019-03-19T07:23:59.881Z,74.07
2019-03-19T07:26:47.678Z,74.42
2019-03-19T07:29:35.961Z,74.02
2019-03-19T07:32:24.830Z,73.21
2019-03-19T07:35:13.410Z,72.58
2019-03-19T07:38:01.467Z,72.03
2019-03-19T07:40:50.186Z,71.26
2019-03-19T07:43:38.322Z,70.69
2019-03-19T07:46:26.223Z,71.07
2019-03-19T07:49:14.407Z,71.32
2019-03-19T07:52:02.899Z,71.42
2019-03-19T07:54:51.121Z,70.92
2019-03-19T07:57:39.289Z,72.98
2019-03-19T08:00:27.690Z,72.51
2019-03-19T08:03:16.602Z,69.55
2019-03-19T08:06:05.316Z,68.41
2019-03-19T08:08:53.917Z,67.90
2019-03-19T08:11:42.068Z,66.40
2019-03-19T08:14:30.167Z,66.50
2019-03-19T08:17:18.625Z,67.24
2019-03-19T08:20:06.618Z,66.10
2019-03-19T08:22:55.237Z,64.53
2019-03-19T08:25:42.882Z,65.18
2019-03-19T08:28:33.653Z,64.48
2019-03-19T08:31:21.062Z,65.66
2019-03-19T08:34:09.761Z,64.69
2019-03-19T08:36:58.139Z,63.83
2019-03-19T08:39:46.588Z,64.53
2019-03-19T08:42:35.696Z,64.06
2019-03-19T08:45:23.748Z,63.87
2019-03-19T08:48:15.277Z,64.17
2019-03-19T08:51:03.937Z,62.99
2019-03-19T08:53:51.894Z,62.16
2019-03-19T08:56:39.653Z,61.92
2019-03-19T08:59:28.653Z,62.76
2019-03-19T09:02:16.492Z,61.46
2019-03-19T09:05:05.043Z,61.28
2019-03-19T09:07:53.227Z,61.56
2019-03-19T09:10:41.757Z,61.27
2019-03-19T09:13:30.317Z,58.78
2019-03-19T09:16:18.848Z,58.94
2019-03-19T09:19:07.220Z,57.84
2019-03-19T09:21:55.344Z,57.83
2019-03-19T09:24:43.777Z,59.11
2019-03-19T09:27:31.835Z,58.66
2019-03-19T09:30:20.764Z,58.30
2019-03-19T09:33:09.098Z,59.55
2019-03-19T09:35:57.587Z,58.76
2019-03-19T09:38:46.244Z,58.68
2019-03-19T09:41:34.868Z,60.06
2019-03-19T09:44:22.463Z,59.21
2019-03-19T09:47:10.978Z,61.53
2019-03-19T09:49:58.820Z,62.37
2019-03-19T09:52:47.498Z,60.87
2019-03-19T09:55:35.788Z,59.88
2019-03-19T09:58:24.192Z,58.77
2019-03-19T10:01:14.726Z,58.13
2019-03-19T10:04:06.538Z,56.76
2019-03-19T10:06:54.168Z,55.13
2019-03-19T10:09:41.963Z,56.47
2019-03-19T10:12:29.940Z,52.22
2019-03-19T10:15:18.315Z,51.88
2019-03-19T10:18:06.585Z,51.56
2019-03-19T10:20:54.439Z,51.49
2019-03-19T10:23:42.745Z,51.06
2019-03-19T10:26:31.533Z,49.88
2019-03-19T10:29:20.045Z,49.93
2019-03-19T10:32:09.952Z,49.76
2019-03-19T10:38:05.124Z,48.24
2019-03-19T10:40:53.701Z,46.07
2019-03-19T10:43:42.218Z,46.75
2019-03-19T10:46:31.770Z,48.73
2019-03-19T10:49:20.634Z,48.42
2019-03-19T10:52:08.642Z,49.08
2019-03-19T10:54:57.089Z,51.71
2019-03-19T10:57:46.179Z,52.95
2019-03-19T11:00:34.721Z,52.63
2019-03-19T11:03:22.600Z,52.49
2019-03-19T11:06:13.405Z,50.46
2019-03-19T11:09:01.967Z,49.23
2019-03-19T11:11:49.889Z,49.53
2019-03-19T11:14:38.011Z,49.51
2019-03-19T11:17:28.446Z,50.41
2019-03-19T11:20:16.913Z,49.86
2019-03-19T11:23:05.180Z,49.70
2019-03-19T11:25:54.751Z,49.50
2019-03-19T11:28:42.752Z,49.38
2019-03-19T11:31:31.265Z,48.70
2019-03-19T11:34:19.529Z,48.03
2019-03-19T11:37:08.012Z,47.49
2019-03-19T11:39:55.802Z,47.12
2019-03-19T11:42:44.199Z,47.46
2019-03-19T11:45:32.440Z,46.31
2019-03-19T11:48:20.991Z,43.30
2019-03-19T11:51:09.220Z,42.20
2019-03-19T11:53:58.214Z,40.90
2019-03-19T11:56:46.323Z,37.95
2019-03-19T11:59:35.116Z,36.17
2019-03-19T12:02:26.253Z,34.98
2019-03-19T12:05:13.162Z,35.93
2019-03-19T12:08:01.617Z,36.64
2019-03-19T12:10:50.207Z,35.62
2019-03-19T12:13:38.708Z,36.09
2019-03-19T12:16:27.245Z,35.93
2019-03-19T12:19:15.761Z,35.79
2019-03-19T12:22:03.571Z,35.13
2019-03-19T12:24:52.571Z,35.56
2019-03-19T12:27:40.893Z,35.39
2019-03-19T12:30:28.996Z,36.44
2019-03-19T12:33:18.351Z,35.61
2019-03-19T12:36:06.558Z,35.17
2019-03-19T12:38:55.284Z,37.34
2019-03-19T12:41:43.760Z,37.63
2019-03-19T12:44:32.409Z,36.43
2019-03-19T12:47:20.942Z,33.90
2019-03-19T12:50:10.836Z,32.74
2019-03-19T12:56:05.942Z,32.26
2019-03-19T12:58:54.404Z,30.46
2019-03-19T13:01:42.249Z,27.79
2019-03-19T13:04:31.070Z,28.49
2019-03-19T13:07:19.611Z,28.19
2019-03-19T13:10:09.479Z,28.88
2019-03-19T13:12:58.053Z,27.86
2019-03-19T13:15:46.711Z,27.32
2019-03-19T13:18:35.269Z,26.68
2019-03-19T13:21:23.814Z,26.65
2019-03-19T13:24:12.589Z,26.17
2019-03-19T13:27:00.746Z,25.25
2019-03-19T13:29:48.622Z,25.31
2019-03-19T13:32:37.323Z,24.86
2019-03-19T13:35:25.688Z,25.20
2019-03-19T13:38:14.237Z,25.23
2019-03-19T13:41:01.842Z,24.64
2019-03-19T13:43:50.020Z,24.09
2019-03-19T13:46:38.621Z,25.48
2019-03-19T13:49:27.198Z,26.63
2019-03-19T13:52:15.032Z,29.07
2019-03-19T13:55:03.227Z,32.27
2019-03-19T13:57:52.795Z,33.41
2019-03-19T14:00:41.447Z,32.94
2019-03-19T14:03:34.510Z,32.12
2019-03-19T14:06:45.808Z,31.66
2019-03-19T14:09:33.488Z,30.25
2019-03-19T14:12:28.028Z,29.00
2019-03-19T14:15:37.102Z,27.40
2019-03-19T14:18:44.659Z,27.58
2019-03-19T14:22:18.923Z,26.99
2019-03-19T14:25:45.892Z,25.27
2019-03-19T14:28:48.248Z,25.50
2019-03-19T14:32:16.757Z,24.00
2019-03-19T14:35:42.807Z,22.50
2019-03-19T14:38:54.382Z,23.19
2019-03-19T14:41:45.954Z,25.82
2019-03-19T14:44:35.030Z,29.12
2019-03-19T14:47:24.092Z,34.70
2019-03-19T14:50:12.823Z,35.26
2019-03-19T14:53:01.138Z,33.23
2019-03-19T14:55:49.681Z,34.65
2019-03-19T14:58:38.589Z,37.08
2019-03-19T15:01:27.071Z,38.25
2019-03-19T15:04:15.541Z,39.03
2019-03-19T15:07:04.300Z,38.81
2019-03-19T15:09:52.812Z,38.60
2019-03-19T15:12:41.310Z,38.34
2019-03-19T15:15:53.106Z,37.45
2019-03-19T15:19:05.914Z,37.75
2019-03-19T15:21:54.299Z,37.70
2019-03-19T15:25:22.391Z,38.97
2019-03-19T15:28:10.521Z,39.85
2019-03-19T15:30:58.927Z,40.50
2019-03-19T15:33:47.638Z,41.29
2019-03-19T15:36:36.121Z,41.25
2019-03-19T15:39:23.916Z,41.50
2019-03-19T15:42:11.895Z,41.28
2019-03-19T15:45:05.992Z,41.48
2019-03-19T15:47:53.904Z,42.19
2019-03-19T15:50:41.861Z,42.80
2019-03-19T15:53:30.937Z,42.77
2019-03-19T15:56:18.763Z,42.79
2019-03-19T15:59:07.706Z,43.74
2019-03-19T16:01:56.249Z,43.83
2019-03-19T16:04:43.880Z,43.96
2019-03-19T16:07:32.106Z,43.58
2019-03-19T16:10:20.400Z,44.54
2019-03-19T16:13:08.491Z,45.77
2019-03-19T16:15:57.394Z,45.78
2019-03-19T16:18:46.036Z,45.49
2019-03-19T16:21:34.255Z,45.70
2019-03-19T16:24:21.983Z,46.31
2019-03-19T16:27:10.073Z,46.22
2019-03-19T16:30:03.989Z,46.78
2019-03-19T16:32:51.899Z,46.86
2019-03-19T16:35:43.179Z,47.29
2019-03-19T16:39:11.372Z,48.22
2019-03-19T16:42:22.153Z,49.40
2019-03-19T16:45:17.769Z,49.47
2019-03-19T16:48:26.983Z,49.50
2019-03-19T16:51:25.581Z,49.29
2019-03-19T16:54:16.457Z,49.11
2019-03-19T16:57:05.029Z,50.36
2019-03-19T16:59:53.604Z,50.05
2019-03-19T17:02:41.975Z,49.65
2019-03-19T17:05:30.183Z,49.97
2019-03-19T17:08:18.672Z,50.82
2019-03-19T17:11:06.891Z,51.75
2019-03-19T17:13:36.740Z,51.38
2019-03-19T17:16:06.590Z,51.08
2019-03-19T17:18:36.520Z,50.74
2019-03-19T17:21:06.385Z,50.99
2019-03-19T17:23:37.632Z,52.47
2019-03-19T17:26:07.463Z,53.04
2019-03-19T17:28:38.071Z,53.55
2019-03-19T17:31:07.896Z,54.86
2019-03-19T17:33:37.820Z,56.05
2019-03-19T17:36:07.656Z,56.95
2019-03-19T17:38:37.863Z,57.49
2019-03-19T17:41:07.732Z,56.53
2019-03-19T17:43:37.600Z,57.65
2019-03-19T17:46:07.440Z,57.77
2019-03-19T17:48:37.407Z,57.04
2019-03-19T17:51:07.739Z,56.54
2019-03-19T17:53:37.558Z,56.79
2019-03-19T17:56:09.889Z,58.15
2019-03-19T17:58:39.188Z,59.81
2019-03-19T18:01:17.116Z,62.18
2019-03-19T18:03:40.993Z,60.68
2019-03-19T18:06:10.814Z,62.61
2019-03-19T18:08:40.639Z,64.65
2019-03-19T18:11:10.872Z,65.16
2019-03-19T18:13:40.688Z,65.81
2019-03-19T18:16:11.292Z,66.06
2019-03-19T18:18:41.161Z,66.83
2019-03-19T18:21:10.983Z,64.92
2019-03-19T18:23:41.349Z,64.88
2019-03-19T18:26:11.215Z,61.44
2019-03-19T18:28:41.055Z,60.73
2019-03-19T18:31:10.883Z,61.89
2019-03-19T18:33:40.794Z,63.12
2019-03-19T18:36:10.623Z,63.43
2019-03-19T18:38:40.450Z,67.92
2019-03-19T18:41:10.344Z,71.96
2019-03-19T18:43:41.232Z,71.88
2019-03-19T18:46:11.065Z,71.62
2019-03-19T18:48:41.027Z,72.21
2019-03-19T18:51:10.854Z,69.13
2019-03-19T18:53:40.751Z,68.08
2019-03-19T18:56:10.610Z,64.17
2019-03-19T18:58:40.488Z,64.56
2019-03-19T19:01:10.302Z,65.68
2019-03-19T19:03:40.395Z,67.86
2019-03-19T19:06:11.033Z,67.95
2019-03-19T19:08:40.876Z,67.50
2019-03-19T19:11:10.783Z,68.16
2019-03-19T19:13:40.943Z,67.27
2019-03-19T19:16:10.798Z,68.07
2019-03-19T19:18:47.284Z,72.22
2019-03-19T19:21:55.994Z,73.98
2019-03-19T19:24:46.337Z,74.56
2019-03-19T19:27:34.703Z,73.22
2019-03-19T19:30:05.285Z,71.02
2019-03-19T19:32:35.131Z,69.33
2019-03-19T19:35:05.431Z,69.42
2019-03-19T19:37:35.709Z,68.90
2019-03-19T19:40:06.473Z,69.38
2019-03-19T19:42:36.298Z,69.56
2019-03-19T19:45:07.379Z,72.50
2019-03-19T19:47:37.211Z,75.04
2019-03-19T19:50:07.761Z,77.31
2019-03-19T19:52:37.622Z,79.02
2019-03-19T19:55:08.324Z,79.26
2019-03-19T19:57:38.249Z,79.08
2019-03-19T20:00:09.385Z,79.54
2019-03-19T20:02:39.242Z,78.75
2019-03-19T20:05:09.196Z,78.10
2019-03-19T20:07:39.078Z,77.55
2019-03-19T20:10:10.284Z,76.21
2019-03-19T20:12:40.439Z,75.49
2019-03-19T20:15:10.406Z,77.15
2019-03-19T20:17:40.245Z,80.36
2019-03-19T20:20:12.563Z,81.88
2019-03-19T20:22:44.700Z,82.72
2019-03-19T20:25:13.950Z,83.52
2019-03-19T20:27:43.822Z,84.15
2019-03-19T20:30:15.170Z,84.24
2019-03-19T20:32:44.995Z,83.28
2019-03-19T20:35:15.302Z,83.06
2019-03-19T20:37:45.124Z,81.69
2019-03-19T20:40:15.099Z,80.33
2019-03-19T20:42:45.548Z,80.57
2019-03-19T20:45:15.391Z,81.77
2019-03-19T20:47:45.248Z,80.47
2019-03-19T20:50:16.625Z,81.68
2019-03-19T20:52:46.570Z,82.63
2019-03-19T20:55:16.832Z,81.84
2019-03-19T20:57:46.852Z,81.25
2019-03-19T21:00:35.561Z,79.74
2019-03-19T21:03:35.209Z,79.74
2019-03-19T21:06:14.028Z,79.72
2019-03-19T21:09:01.790Z,82.20
2019-03-19T21:11:50.101Z,85.83
2019-03-19T21:14:38.223Z,89.44
2019-03-19T21:17:37.114Z,91.51
2019-03-19T21:20:25.679Z,92.21
2019-03-19T21:23:14.141Z,92.38
2019-03-19T21:26:02.026Z,91.66
2019-03-19T21:28:50.636Z,91.37
2019-03-19T21:31:38.980Z,91.67
2019-03-19T21:34:27.426Z,91.53
2019-03-19T21:37:15.761Z,90.46
2019-03-19T21:40:04.491Z,88.68
2019-03-19T21:42:56.206Z,87.69
2019-03-19T21:45:44.929Z,86.69
2019-03-19T21:48:36.497Z,86.03
2019-03-19T21:51:24.437Z,85.55
2019-03-19T21:54:12.352Z,85.01
2019-03-19T21:57:00.056Z,85.36
2019-03-19T21:59:49.319Z,84.95
2019-03-19T22:02:36.851Z,84.02
2019-03-19T22:05:24.693Z,83.80
2019-03-19T22:08:13.169Z,85.86
2019-03-19T22:11:01.108Z,86.58
2019-03-19T22:13:49.579Z,84.56
2019-03-19T22:16:38.220Z,85.49
2019-03-19T22:19:26.707Z,89.95
2019-03-19T22:22:16.606Z,91.42
2019-03-19T22:25:05.253Z,91.44
2019-03-19T22:27:54.088Z,90.30
2019-03-19T22:30:41.824Z,87.70
2019-03-19T22:33:33.488Z,87.67
2019-03-19T22:36:20.205Z,87.18
2019-03-19T22:39:08.980Z,86.62
2019-03-19T22:41:57.927Z,89.18
2019-03-19T22:44:46.528Z,90.89
2019-03-19T22:47:34.678Z,92.13
2019-03-19T22:50:05.136Z,91.27
2019-03-19T22:52:35.068Z,89.77
2019-03-19T22:55:05.118Z,89.75
2019-03-19T22:57:35.720Z,91.35
2019-03-19T23:00:07.146Z,91.80
2019-03-19T23:02:42.551Z,93.92
2019-03-19T23:05:13.819Z,95.52
2019-03-19T23:07:43.656Z,96.42
2019-03-19T23:10:16.250Z,97.24
2019-03-19T23:12:46.603Z,98.01
2019-03-19T23:15:16.440Z,98.74
2019-03-19T23:17:46.677Z,97.67
2019-03-19T23:20:17.063Z,97.43
2019-03-19T23:22:46.927Z,97.14
2019-03-19T23:25:16.949Z,100.00
2019-03-19T23:27:46.776Z,100.00
2019-03-19T23:30:16.614Z,100.00
2019-03-19T23:32:46.463Z,99.93
2019-03-19T23:35:16.293Z,98.61
2019-03-19T23:37:46.124Z,97.31
2019-03-19T23:40:16.108Z,94.88
2019-03-19T23:42:46.376Z,93.79
2019-03-19T23:45:16.305Z,93.21
2019-03-19T23:47:46.211Z,92.69
2019-03-19T23:50:17.318Z,92.30
2019-03-19T23:52:47.359Z,92.73
2019-03-19T23:55:17.573Z,92.55
2019-03-19T23:57:47.388Z,92.28
